createdAt,value
2018-10-07T00:01:51.696Z,95228.89
2018-10-07T00:04:20.422Z,95232.42
2018-10-07T00:06:49.005Z,95229.91
2018-10-07T00:09:17.567Z,95226.46
2018-10-07T00:11:46.734Z,95218.50
2018-10-07T00:14:15.424Z,95214.95
2018-10-07T00:16:44.075Z,95206.05
2018-10-07T00:19:12.643Z,95207.00
2018-10-07T00:21:41.241Z,95205.70
2018-10-07T00:24:10.162Z,95198.30
2018-10-07T00:26:38.932Z,95200.84
2018-10-07T00:29:07.557Z,95199.63
2018-10-07T00:31:40.523Z,95195.38
2018-10-07T00:34:09.128Z,95188.12
2018-10-07T00:36:37.821Z,95181.97
2018-10-07T00:39:08.763Z,95178.03
2018-10-07T00:41:37.377Z,95172.84
2018-10-07T00:44:06.042Z,95172.88
2018-10-07T00:46:35.507Z,95161.62
2018-10-07T00:49:04.577Z,95158.55
2018-10-07T00:51:33.158Z,95164.62
2018-10-07T00:54:02.188Z,95159.56
2018-10-07T00:56:30.886Z,95163.83
2018-10-07T00:58:59.580Z,95160.39
2018-10-07T01:01:28.655Z,95161.58
2018-10-07T01:03:57.309Z,95156.34
2018-10-07T01:06:25.954Z,95162.59
2018-10-07T01:08:54.926Z,95165.38
2018-10-07T01:11:23.625Z,95158.61
2018-10-07T01:13:52.427Z,95166.58
2018-10-07T01:16:21.501Z,95156.50
2018-10-07T01:18:50.171Z,95155.06
2018-10-07T01:21:18.829Z,95148.88
2018-10-07T01:23:47.602Z,95149.40
2018-10-07T01:26:16.305Z,95145.57
2018-10-07T01:28:44.909Z,95141.84
2018-10-07T01:31:13.918Z,95139.69
2018-10-07T01:33:42.640Z,95139.92
2018-10-07T01:36:11.316Z,95143.59
2018-10-07T01:38:40.042Z,95135.30
2018-10-07T01:41:08.835Z,95136.52
2018-10-07T01:43:37.423Z,95135.75
2018-10-07T01:46:06.366Z,95146.37
2018-10-07T01:48:35.021Z,95143.31
2018-10-07T01:51:03.699Z,95131.50
2018-10-07T01:53:32.610Z,95133.45
2018-10-07T01:56:01.285Z,95128.96
2018-10-07T01:58:29.972Z,95138.09
2018-10-07T02:00:59.083Z,95130.80
2018-10-07T02:03:27.679Z,95130.06
2018-10-07T02:05:56.263Z,95130.09
2018-10-07T02:08:25.148Z,95130.63
2018-10-07T02:10:53.808Z,95130.22
2018-10-07T02:13:22.520Z,95127.02
2018-10-07T02:15:51.513Z,95130.69
2018-10-07T02:18:20.280Z,95120.88
2018-10-07T02:20:49.015Z,95115.05
2018-10-07T02:23:17.983Z,95116.14
2018-10-07T02:25:46.700Z,95114.71
2018-10-07T02:28:15.275Z,95117.23
2018-10-07T02:30:51.121Z,95111.77
2018-10-07T02:33:19.696Z,95111.67
2018-10-07T02:35:48.271Z,95109.55
2018-10-07T02:38:17.009Z,95115.18
2018-10-07T02:40:45.610Z,95113.24
2018-10-07T02:43:14.355Z,95120.36
2018-10-07T02:45:43.230Z,95113.17
2018-10-07T02:48:11.903Z,95059.45
2018-10-07T02:50:41.658Z,95108.95
2018-10-07T02:53:10.757Z,95108.32
2018-10-07T02:55:39.569Z,95111.98
2018-10-07T02:58:08.527Z,95110.15
2018-10-07T03:00:37.194Z,95115.56
2018-10-07T03:03:05.860Z,95116.94
2018-10-07T03:05:34.463Z,95110.45
2018-10-07T03:08:03.452Z,95108.37
2018-10-07T03:10:32.037Z,95110.13
2018-10-07T03:13:00.706Z,95107.91
2018-10-07T03:15:29.839Z,95111.45
2018-10-07T03:17:58.487Z,95103.66
2018-10-07T03:20:27.174Z,95101.89
2018-10-07T03:22:56.094Z,95110.08
2018-10-07T03:25:24.769Z,95110.95
2018-10-07T03:27:53.590Z,95102.30
2018-10-07T03:30:22.658Z,95100.30
2018-10-07T03:32:51.438Z,95101.22
2018-10-07T03:35:20.010Z,95098.61
2018-10-07T03:37:48.625Z,95096.20
2018-10-07T03:40:17.293Z,95099.63
2018-10-07T03:42:46.016Z,95095.34
2018-10-07T03:45:21.650Z,95095.91
2018-10-07T03:47:50.801Z,95094.45
2018-10-07T03:50:19.720Z,95094.73
2018-10-07T03:52:49.109Z,95100.31
2018-10-07T03:55:17.802Z,95096.53
2018-10-07T03:57:46.505Z,95096.00
2018-10-07T04:00:15.706Z,95097.12
2018-10-07T04:02:44.466Z,95097.66
2018-10-07T04:05:13.063Z,95099.00
2018-10-07T04:07:42.272Z,95094.45
2018-10-07T04:10:11.052Z,95092.19
2018-10-07T04:12:39.674Z,95092.96
2018-10-07T04:15:08.846Z,95088.57
2018-10-07T04:17:37.762Z,95088.11
2018-10-07T04:20:06.697Z,95092.74
2018-10-07T04:22:35.587Z,95086.30
2018-10-07T04:25:04.501Z,95091.79
2018-10-07T04:27:33.174Z,95088.88
2018-10-07T04:30:01.980Z,95096.53
2018-10-07T04:32:30.769Z,95088.02
2018-10-07T04:34:59.869Z,95097.50
2018-10-07T04:37:28.659Z,95093.28
2018-10-07T04:39:57.470Z,95098.83
2018-10-07T04:42:26.709Z,95094.63
2018-10-07T04:44:55.761Z,95097.73
2018-10-07T04:47:24.739Z,95104.27
2018-10-07T04:49:53.543Z,95107.17
2018-10-07T04:52:22.487Z,95106.50
2018-10-07T04:54:51.442Z,95102.38
2018-10-07T04:57:20.855Z,95114.53
2018-10-07T04:59:49.433Z,95103.46
2018-10-07T05:02:18.001Z,95108.91
2018-10-07T05:04:47.079Z,95113.35
2018-10-07T05:07:15.935Z,95110.33
2018-10-07T05:09:45.011Z,95107.55
2018-10-07T05:12:14.187Z,95104.53
2018-10-07T05:14:43.320Z,95112.34
2018-10-07T05:17:14.789Z,95107.45
2018-10-07T05:19:43.955Z,95096.74
2018-10-07T05:22:12.807Z,95103.70
2018-10-07T05:24:42.256Z,95099.52
2018-10-07T05:27:10.987Z,95099.40
2018-10-07T05:29:39.677Z,95093.05
2018-10-07T05:32:08.642Z,95103.84
2018-10-07T05:34:37.990Z,95098.29
2018-10-07T05:37:07.055Z,95098.14
2018-10-07T05:39:35.766Z,95099.16
2018-10-07T05:42:04.649Z,95099.47
2018-10-07T05:44:33.762Z,95092.92
2018-10-07T05:47:02.839Z,95090.53
2018-10-07T05:49:31.726Z,95098.19
2018-10-07T05:52:00.624Z,95094.17
2018-10-07T05:54:29.839Z,95097.56
2018-10-07T05:56:58.471Z,95094.97
2018-10-07T05:59:27.220Z,95089.66
2018-10-07T06:01:57.157Z,95087.59
2018-10-07T06:04:30.262Z,95092.55
2018-10-07T06:07:00.988Z,95093.91
2018-10-07T06:09:31.712Z,95092.17
2018-10-07T06:12:00.731Z,95088.59
2018-10-07T06:14:40.830Z,95089.95
2018-10-07T06:17:09.904Z,95097.80
2018-10-07T06:19:38.718Z,95099.61
2018-10-07T06:22:09.963Z,95096.16
2018-10-07T06:24:38.979Z,95092.87
2018-10-07T06:27:07.882Z,95098.02
2018-10-07T06:29:36.886Z,95089.35
2018-10-07T06:32:05.725Z,95092.48
2018-10-07T06:34:34.715Z,95092.78
2018-10-07T06:37:04.054Z,95090.29
2018-10-07T06:39:32.910Z,95092.87
2018-10-07T06:42:01.974Z,95099.34
2018-10-07T06:44:31.252Z,95089.30
2018-10-07T06:47:00.507Z,95090.38
2018-10-07T06:49:29.237Z,95091.06
2018-10-07T06:51:58.682Z,95089.57
2018-10-07T06:54:27.643Z,95085.93
2018-10-07T06:56:56.311Z,95079.39
2018-10-07T06:59:25.216Z,95085.30
2018-10-07T07:01:54.252Z,95081.97
2018-10-07T07:04:23.079Z,95083.30
2018-10-07T07:06:51.906Z,95078.38
2018-10-07T07:09:20.941Z,95085.61
2018-10-07T07:11:50.042Z,95086.20
2018-10-07T07:14:19.143Z,95082.32
2018-10-07T07:16:48.129Z,95077.56
2018-10-07T07:19:16.808Z,95085.94
2018-10-07T07:21:45.718Z,95083.36
2018-10-07T07:24:14.427Z,95072.92
2018-10-07T07:26:43.189Z,95068.67
2018-10-07T07:29:12.015Z,95071.89
2018-10-07T07:31:41.048Z,95074.86
2018-10-07T07:34:09.961Z,95072.05
2018-10-07T07:36:38.719Z,95075.80
2018-10-07T07:39:08.383Z,95075.12
2018-10-07T07:41:37.670Z,95071.72
2018-10-07T07:44:06.548Z,95069.39
2018-10-07T07:46:35.429Z,95063.70
2018-10-07T07:49:04.343Z,95070.52
2018-10-07T07:51:33.050Z,95068.13
2018-10-07T07:54:02.290Z,95071.31
2018-10-07T07:56:31.358Z,95061.98
2018-10-07T07:58:59.991Z,95057.73
2018-10-07T08:01:29.044Z,95052.42
2018-10-07T08:03:58.314Z,95046.98
2018-10-07T08:06:27.415Z,95052.30
2018-10-07T08:08:56.801Z,95041.27
2018-10-07T08:11:25.799Z,95045.48
2018-10-07T08:13:54.780Z,95043.14
2018-10-07T08:16:23.574Z,95039.47
2018-10-07T08:18:52.791Z,95035.88
2018-10-07T08:21:21.756Z,95036.98
2018-10-07T08:23:50.450Z,95033.36
2018-10-07T08:26:19.572Z,95028.67
2018-10-07T08:28:48.210Z,95024.74
2018-10-07T08:31:17.365Z,95028.98
2018-10-07T08:33:46.611Z,95026.11
2018-10-07T08:36:15.472Z,95025.94
2018-10-07T08:38:44.250Z,95023.59
2018-10-07T08:41:13.488Z,95020.72
2018-10-07T08:43:42.400Z,95018.88
2018-10-07T08:46:11.148Z,95013.08
2018-10-07T08:48:40.485Z,95016.76
2018-10-07T08:51:09.485Z,95024.15
2018-10-07T08:53:38.454Z,95014.09
2018-10-07T08:56:07.337Z,95011.38
2018-10-07T08:58:35.950Z,95006.64
2018-10-07T09:01:05.070Z,94996.80
2018-10-07T09:03:34.480Z,95001.81
2018-10-07T09:06:03.398Z,94994.88
2018-10-07T09:08:32.112Z,95001.27
2018-10-07T09:11:01.257Z,94996.30
2018-10-07T09:13:30.009Z,94985.32
2018-10-07T09:15:58.705Z,94982.50
2018-10-07T09:18:27.421Z,94977.95
2018-10-07T09:20:56.275Z,94971.22
2018-10-07T09:23:24.906Z,94972.11
2018-10-07T09:25:53.552Z,94967.47
2018-10-07T09:28:22.873Z,94969.84
2018-10-07T09:30:51.957Z,94974.27
2018-10-07T09:33:20.746Z,94977.27
2018-10-07T09:35:49.843Z,94971.35
2018-10-07T09:38:18.639Z,94965.47
2018-10-07T09:40:47.619Z,94957.11
2018-10-07T09:43:16.408Z,94953.27
2018-10-07T09:45:45.179Z,94950.75
2018-10-07T09:48:13.938Z,94946.22
2018-10-07T09:50:42.877Z,94942.98
2018-10-07T09:53:11.719Z,94940.86
2018-10-07T09:55:40.417Z,94940.28
2018-10-07T09:58:09.649Z,94934.31
2018-10-07T10:00:41.317Z,94933.63
2018-10-07T10:03:12.164Z,94929.12
2018-10-07T10:05:40.975Z,94928.88
2018-10-07T10:08:09.838Z,94924.73
2018-10-07T10:10:38.966Z,94923.91
2018-10-07T10:13:07.830Z,94917.39
2018-10-07T10:15:36.898Z,94914.81
2018-10-07T10:19:12.916Z,94912.63
2018-10-07T10:21:45.009Z,94905.50
2018-10-07T10:24:24.562Z,94899.55
2018-10-07T10:29:18.390Z,94890.06
2018-10-07T10:32:00.548Z,94895.64
2018-10-07T10:35:50.927Z,94887.77
2018-10-07T10:38:26.789Z,94880.25
2018-10-07T10:41:01.083Z,94873.34
2018-10-07T10:43:40.636Z,94880.23
2018-10-07T10:46:15.974Z,94869.78
2018-10-07T10:50:58.443Z,94856.49
2018-10-07T10:53:34.099Z,94869.64
2018-10-07T10:56:08.649Z,94848.73
2018-10-07T11:00:52.005Z,94846.29
2018-10-07T11:03:34.139Z,94841.34
2018-10-07T11:06:36.862Z,94834.31
2018-10-07T11:09:39.281Z,94831.06
2018-10-07T11:12:16.861Z,94820.55
2018-10-07T11:15:03.775Z,94818.28
2018-10-07T11:18:41.184Z,94814.02
2018-10-07T11:21:21.136Z,94811.93
2018-10-07T11:23:59.193Z,94818.26
2018-10-07T11:26:36.658Z,94813.47
2018-10-07T11:29:17.739Z,94810.84
2018-10-07T11:31:57.860Z,94802.98
2018-10-07T11:35:39.490Z,94797.23
2018-10-07T11:38:15.081Z,94796.34
2018-10-07T11:41:05.519Z,94796.57
2018-10-07T11:43:43.955Z,94792.91
2018-10-07T11:46:19.585Z,94794.61
2018-10-07T11:48:58.200Z,94785.41
2018-10-07T11:53:39.332Z,94780.02
2018-10-07T11:56:08.022Z,94778.56
2018-10-07T11:58:36.946Z,94774.86
2018-10-07T12:01:05.988Z,94774.56
2018-10-07T12:03:35.857Z,94772.03
2018-10-07T12:06:05.022Z,94765.20
2018-10-07T12:08:34.280Z,94768.56
2018-10-07T12:11:03.227Z,94768.00
2018-10-07T12:13:39.326Z,94765.59
2018-10-07T12:16:08.351Z,94769.84
2018-10-07T12:18:37.123Z,94762.44
2018-10-07T12:21:06.138Z,94755.73
2018-10-07T12:23:34.873Z,94741.81
2018-10-07T12:26:03.917Z,94738.26
2018-10-07T12:28:32.907Z,94746.93
2018-10-07T12:31:01.772Z,94734.83
2018-10-07T12:33:30.951Z,94731.86
2018-10-07T12:35:59.975Z,94733.05
2018-10-07T12:38:28.550Z,94726.72
2018-10-07T12:40:57.729Z,94722.61
2018-10-07T12:43:27.056Z,94719.55
2018-10-07T12:45:55.698Z,94718.98
2018-10-07T12:48:24.251Z,94716.56
2018-10-07T12:50:52.986Z,94714.30
2018-10-07T12:53:22.002Z,94711.47
2018-10-07T12:55:50.859Z,94716.30
2018-10-07T12:58:19.942Z,94713.98
2018-10-07T13:00:48.869Z,94706.29
2018-10-07T13:03:17.858Z,94706.34
2018-10-07T13:05:46.977Z,94700.44
2018-10-07T13:08:15.723Z,94704.39
2018-10-07T13:10:44.620Z,94705.20
2018-10-07T13:13:13.958Z,94694.11
2018-10-07T13:15:42.676Z,94694.73
2018-10-07T13:18:11.396Z,94692.31
2018-10-07T13:20:40.070Z,94690.74
2018-10-07T13:23:09.501Z,94687.94
2018-10-07T13:25:38.582Z,94685.31
2018-10-07T13:28:07.855Z,94691.47
2018-10-07T13:30:36.994Z,94689.09
2018-10-07T13:33:05.642Z,94684.13
2018-10-07T13:35:34.960Z,94683.15
2018-10-07T13:38:03.852Z,94679.70
2018-10-07T13:40:32.662Z,94685.59
2018-10-07T13:43:01.900Z,94678.56
2018-10-07T13:45:30.663Z,94682.59
2018-10-07T13:47:59.439Z,94674.03
2018-10-07T13:50:28.354Z,94674.38
2018-10-07T13:52:57.206Z,94664.23
2018-10-07T13:55:25.927Z,94657.13
2018-10-07T13:57:54.864Z,94653.19
2018-10-07T14:00:23.981Z,94658.27
2018-10-07T14:02:52.778Z,94651.14
2018-10-07T14:05:22.638Z,94658.44
2018-10-07T14:07:51.890Z,94656.56
2018-10-07T14:10:20.903Z,94644.80
2018-10-07T14:12:50.202Z,94656.41
2018-10-07T14:15:18.831Z,94654.05
2018-10-07T14:17:47.673Z,94652.97
2018-10-07T14:20:16.350Z,94656.08
2018-10-07T14:22:45.121Z,94650.55
2018-10-07T14:25:13.856Z,94650.10
2018-10-07T14:27:42.731Z,94657.92
2018-10-07T14:30:11.828Z,94646.89
2018-10-07T14:32:41.164Z,94650.92
2018-10-07T14:35:10.249Z,94648.27
2018-10-07T14:37:38.917Z,94649.14
2018-10-07T14:40:08.243Z,94646.27
2018-10-07T14:42:37.095Z,94649.60
2018-10-07T14:45:05.871Z,94646.14
2018-10-07T14:47:35.787Z,94645.63
2018-10-07T14:50:04.477Z,94651.70
2018-10-07T14:52:33.502Z,94646.14
2018-10-07T14:55:02.591Z,94646.25
2018-10-07T14:57:31.575Z,94646.35
2018-10-07T15:00:00.350Z,94640.13
2018-10-07T15:02:35.682Z,94643.19
2018-10-07T15:05:04.729Z,94640.58
2018-10-07T15:07:33.331Z,94642.98
2018-10-07T15:10:02.328Z,94643.64
2018-10-07T15:12:31.444Z,94646.23
2018-10-07T15:15:00.135Z,94645.53
2018-10-07T15:17:29.189Z,94645.45
2018-10-07T15:19:57.870Z,94654.70
2018-10-07T15:22:26.956Z,94650.10
2018-10-07T15:24:56.585Z,94650.54
2018-10-07T15:27:25.768Z,94650.29
2018-10-07T15:29:54.839Z,94654.33
2018-10-07T15:32:23.918Z,94656.99
2018-10-07T15:34:52.807Z,94662.55
2018-10-07T15:37:21.852Z,94666.43
2018-10-07T15:39:51.100Z,94668.11
2018-10-07T15:42:19.951Z,94669.72
2018-10-07T15:44:48.737Z,94665.81
2018-10-07T15:47:17.738Z,94665.17
2018-10-07T15:49:46.366Z,94670.62
2018-10-07T15:52:15.263Z,94661.92
2018-10-07T15:54:44.286Z,94665.36
2018-10-07T15:57:13.290Z,94672.28
2018-10-07T15:59:42.258Z,94667.36
2018-10-07T16:02:11.383Z,94675.70
2018-10-07T16:04:40.563Z,94678.91
2018-10-07T16:07:09.661Z,94674.75
2018-10-07T16:09:38.823Z,94677.41
2018-10-07T16:12:07.857Z,94674.72
2018-10-07T16:14:36.762Z,94687.66
2018-10-07T16:17:06.237Z,94635.95
2018-10-07T16:19:35.285Z,94686.89
2018-10-07T16:22:04.151Z,94685.94
2018-10-07T16:24:34.395Z,94685.55
2018-10-07T16:27:03.371Z,94689.24
2018-10-07T16:29:32.094Z,94692.77
2018-10-07T16:32:01.393Z,94696.16
2018-10-07T16:34:30.142Z,94700.19
2018-10-07T16:36:58.920Z,94703.02
2018-10-07T16:39:27.571Z,94712.54
2018-10-07T16:41:56.262Z,94715.05
2018-10-07T16:44:24.838Z,94715.11
2018-10-07T16:46:53.864Z,94712.42
2018-10-07T16:49:22.623Z,94725.70
2018-10-07T16:51:51.461Z,94727.03
2018-10-07T16:54:20.366Z,94731.07
2018-10-07T16:56:49.027Z,94738.20
2018-10-07T16:59:18.119Z,94739.41
2018-10-07T17:01:47.017Z,94742.50
2018-10-07T17:04:15.866Z,94749.28
2018-10-07T17:06:45.259Z,94739.72
2018-10-07T17:09:14.236Z,94744.48
2018-10-07T17:11:43.185Z,94746.73
2018-10-07T17:14:12.530Z,94746.12
2018-10-07T17:16:41.272Z,94750.14
2018-10-07T17:19:10.201Z,94516.62
2018-10-07T17:21:39.510Z,94755.61
2018-10-07T17:24:08.492Z,94758.77
2018-10-07T17:26:37.704Z,94758.83
2018-10-07T17:29:07.222Z,94758.89
2018-10-07T17:31:35.905Z,94754.69
2018-10-07T17:34:04.886Z,94754.25
2018-10-07T17:36:34.116Z,94757.64
2018-10-07T17:39:03.516Z,94759.58
2018-10-07T17:41:33.987Z,94765.45
2018-10-07T17:44:02.635Z,94768.36
2018-10-07T17:46:31.283Z,94775.73
2018-10-07T17:49:00.434Z,94772.08
2018-10-07T17:51:29.270Z,94778.67
2018-10-07T17:53:58.167Z,94783.45
2018-10-07T17:56:27.171Z,94786.63
2018-10-07T17:58:56.114Z,94785.34
2018-10-07T18:01:25.047Z,94792.48
2018-10-07T18:03:54.271Z,94792.91
2018-10-07T18:06:23.383Z,94792.98
2018-10-07T18:08:52.319Z,94795.36
2018-10-07T18:11:22.467Z,94801.08
2018-10-07T18:13:51.111Z,94800.77
2018-10-07T18:16:19.838Z,94800.03
2018-10-07T18:18:48.847Z,94806.58
2018-10-07T18:21:17.935Z,94810.02
2018-10-07T18:23:46.830Z,94814.24
2018-10-07T18:26:16.231Z,94815.81
2018-10-07T18:28:45.205Z,94820.27
2018-10-07T18:31:14.177Z,94823.36
2018-10-07T18:33:43.004Z,94825.69
2018-10-07T18:36:12.007Z,94819.73
2018-10-07T18:38:40.949Z,94818.67
2018-10-07T18:41:10.178Z,94829.45
2018-10-07T18:43:38.896Z,94828.92
2018-10-07T18:46:07.496Z,94826.84
2018-10-07T18:48:36.828Z,94836.48
2018-10-07T18:51:05.852Z,94835.34
2018-10-07T18:53:34.581Z,94846.19
2018-10-07T18:56:04.058Z,94846.41
2018-10-07T18:58:33.091Z,94850.39
2018-10-07T19:01:02.471Z,94848.12
2018-10-07T19:03:31.763Z,94848.47
2018-10-07T19:06:00.636Z,94847.35
2018-10-07T19:08:29.449Z,94855.41
2018-10-07T19:10:58.208Z,94850.64
2018-10-07T19:13:26.894Z,94855.80
2018-10-07T19:15:55.713Z,94852.88
2018-10-07T19:18:24.906Z,94856.53
2018-10-07T19:20:53.774Z,94863.57
2018-10-07T19:23:22.567Z,94858.96
2018-10-07T19:25:51.898Z,94865.95
2018-10-07T19:28:20.691Z,94867.23
2018-10-07T19:30:49.652Z,94868.58
2018-10-07T19:33:18.720Z,94872.82
2018-10-07T19:35:47.542Z,94878.33
2018-10-07T19:38:16.635Z,94880.61
2018-10-07T19:40:46.050Z,94878.75
2018-10-07T19:43:14.678Z,94887.37
2018-10-07T19:45:43.305Z,94882.42
2018-10-07T19:48:12.514Z,94885.30
2018-10-07T19:50:41.396Z,94887.42
2018-10-07T19:53:10.093Z,94888.70
2018-10-07T19:55:39.077Z,94886.86
2018-10-07T19:58:08.173Z,94889.03
2018-10-07T20:00:37.280Z,94888.98
2018-10-07T20:03:06.365Z,94889.92
2018-10-07T20:05:35.304Z,94889.07
2018-10-07T20:08:04.087Z,94890.89
2018-10-07T20:10:33.150Z,94891.11
2018-10-07T20:13:01.783Z,94889.20
2018-10-07T20:15:30.532Z,94898.31
2018-10-07T20:17:59.987Z,94896.09
2018-10-07T20:20:28.928Z,94904.69
2018-10-07T20:22:57.902Z,94900.79
2018-10-07T20:25:26.623Z,94900.72
2018-10-07T20:27:55.288Z,94904.13
2018-10-07T20:30:24.076Z,94908.63
2018-10-07T20:32:53.083Z,94909.22
2018-10-07T20:35:22.120Z,94907.38
2018-10-07T20:37:51.249Z,94898.16
2018-10-07T20:40:20.309Z,94897.34
2018-10-07T20:42:48.916Z,94904.75
2018-10-07T20:45:17.561Z,94898.73
2018-10-07T20:47:46.544Z,94903.44
2018-10-07T20:50:15.502Z,94902.72
2018-10-07T20:52:44.142Z,94911.70
2018-10-07T20:55:13.421Z,94913.20
2018-10-07T20:57:42.395Z,94913.49
2018-10-07T21:00:11.130Z,94913.11
2018-10-07T21:02:40.525Z,94920.59
2018-10-07T21:05:09.691Z,94917.20
2018-10-07T21:07:38.725Z,94915.39
2018-10-07T21:10:07.458Z,94917.03
2018-10-07T21:12:36.083Z,94923.28
2018-10-07T21:15:04.827Z,94920.92
2018-10-07T21:17:33.954Z,94925.80
2018-10-07T21:20:02.829Z,94924.03
2018-10-07T21:22:32.028Z,94921.06
2018-10-07T21:25:01.500Z,94910.42
2018-10-07T21:27:30.458Z,94907.66
2018-10-07T21:29:59.518Z,94916.17
2018-10-07T21:32:28.634Z,94919.61
2018-10-07T21:34:57.662Z,94910.39
2018-10-07T21:37:26.449Z,94916.70
2018-10-07T21:39:55.339Z,94919.47
2018-10-07T21:42:24.317Z,94914.23
2018-10-07T21:44:52.990Z,94916.38
2018-10-07T21:47:22.099Z,94921.72
2018-10-07T21:49:50.890Z,94916.67
2018-10-07T21:52:19.839Z,94917.01
2018-10-07T21:54:48.879Z,94919.41
2018-10-07T21:57:17.769Z,94913.54
2018-10-07T21:59:46.667Z,94916.91
2018-10-07T22:02:15.526Z,94910.80
2018-10-07T22:04:44.514Z,94913.03
2018-10-07T22:07:13.379Z,94905.75
2018-10-07T22:09:42.169Z,94906.98
2018-10-07T22:12:10.898Z,94906.64
2018-10-07T22:14:39.567Z,94911.88
2018-10-07T22:17:08.523Z,94903.71
2018-10-07T22:19:37.500Z,94904.41
2018-10-07T22:22:06.579Z,94903.30
2018-10-07T22:24:35.794Z,94896.91
2018-10-07T22:27:04.743Z,94899.92
2018-10-07T22:29:33.663Z,94899.31
2018-10-07T22:32:03.864Z,94895.36
2018-10-07T22:34:32.778Z,94898.98
2018-10-07T22:37:01.637Z,94898.78
2018-10-07T22:39:30.598Z,94902.44
2018-10-07T22:41:59.857Z,94903.94
2018-10-07T22:44:28.559Z,94910.77
2018-10-07T22:46:57.941Z,94915.80
2018-10-07T22:49:26.615Z,94912.42
2018-10-07T22:51:55.744Z,94916.08
2018-10-07T22:54:24.616Z,94917.98
2018-10-07T22:56:53.519Z,94914.38
2018-10-07T22:59:22.312Z,94909.17
2018-10-07T23:01:51.119Z,94909.50
2018-10-07T23:04:19.893Z,94908.58
2018-10-07T23:06:48.776Z,94904.34
2018-10-07T23:09:17.986Z,94905.89
2018-10-07T23:11:46.762Z,94901.87
2018-10-07T23:14:15.385Z,94901.61
2018-10-07T23:16:44.668Z,94899.13
2018-10-07T23:19:13.427Z,94896.89
2018-10-07T23:21:42.079Z,94896.07
2018-10-07T23:24:11.041Z,94899.12
2018-10-07T23:26:39.694Z,94897.09
2018-10-07T23:29:08.775Z,94903.19
2018-10-07T23:31:37.871Z,94905.28
2018-10-07T23:34:06.789Z,94897.64
2018-10-07T23:36:35.586Z,94897.19
2018-10-07T23:39:05.701Z,94893.97
2018-10-07T23:41:34.700Z,94897.38
2018-10-07T23:44:03.480Z,94897.14
2018-10-07T23:46:32.506Z,94901.73
2018-10-07T23:49:01.369Z,94901.66
2018-10-07T23:51:30.369Z,94894.77
2018-10-07T23:53:59.044Z,94893.39
2018-10-07T23:56:27.794Z,94889.70
2018-10-07T23:58:56.685Z,94890.80
